sensor_id;sensor_type;location;lat;lon;timestamp;pressure;altitude;pressure_sealevel;temperature;humidity
9462;BME280;4769;42.660;23.262;2023-04-28T00:01:24;94213.06;;;7.06;58.41
9462;BME280;4769;42.660;23.262;2023-04-28T00:03:54;94201.56;;;6.82;58.47
9462;BME280;4769;42.660;23.262;2023-04-28T00:06:22;94196.47;;;6.87;58.72
9462;BME280;4769;42.660;23.262;2023-04-28T00:08:50;94194.47;;;6.65;59.07
9462;BME280;4769;42.660;23.262;2023-04-28T00:11:15;94206.09;;;6.75;58.86
9462;BME280;4769;42.660;23.262;2023-04-28T00:13:41;94207.63;;;6.58;59.25
9462;BME280;4769;42.660;23.262;2023-04-28T00:16:09;94210.41;;;6.63;59.61
9462;BME280;4769;42.660;23.262;2023-04-28T00:18:46;94216.00;;;6.67;59.98
9462;BME280;4769;42.660;23.262;2023-04-28T00:21:11;94203.00;;;6.78;59.32
9462;BME280;4769;42.660;23.262;2023-04-28T00:23:38;94212.63;;;6.84;59.19
9462;BME280;4769;42.660;23.262;2023-04-28T00:26:05;94204.66;;;6.73;59.64
9462;BME280;4769;42.660;23.262;2023-04-28T00:28:30;94207.88;;;6.50;60.28
9462;BME280;4769;42.660;23.262;2023-04-28T00:30:56;94217.41;;;6.69;59.71
9462;BME280;4769;42.660;23.262;2023-04-28T00:33:22;94216.06;;;6.60;59.92
9462;BME280;4769;42.660;23.262;2023-04-28T00:35:57;94211.41;;;6.62;60.12
9462;BME280;4769;42.660;23.262;2023-04-28T00:38:23;94221.63;;;6.70;60.17
9462;BME280;4769;42.660;23.262;2023-04-28T00:40:52;94222.16;;;6.54;60.02
9462;BME280;4769;42.660;23.262;2023-04-28T00:43:18;94217.50;;;6.56;60.19
9462;BME280;4769;42.660;23.262;2023-04-28T00:45:44;94229.72;;;6.69;60.13
9462;BME280;4769;42.660;23.262;2023-04-28T00:48:15;94222.38;;;6.53;60.46
9462;BME280;4769;42.660;23.262;2023-04-28T00:50:41;94238.28;;;6.51;60.47
9462;BME280;4769;42.660;23.262;2023-04-28T00:53:10;94233.81;;;6.58;60.22
9462;BME280;4769;42.660;23.262;2023-04-28T00:55:36;94221.28;;;6.60;60.13
9462;BME280;4769;42.660;23.262;2023-04-28T00:58:02;94238.78;;;6.42;60.57
9462;BME280;4769;42.660;23.262;2023-04-28T01:00:29;94232.56;;;6.36;60.59
9462;BME280;4769;42.660;23.262;2023-04-28T01:02:56;94238.56;;;6.43;60.38
9462;BME280;4769;42.660;23.262;2023-04-28T01:05:23;94232.50;;;6.43;60.29
9462;BME280;4769;42.660;23.262;2023-04-28T01:07:49;94233.59;;;6.60;59.50
9462;BME280;4769;42.660;23.262;2023-04-28T01:10:18;94238.91;;;6.53;59.97
9462;BME280;4769;42.660;23.262;2023-04-28T01:12:45;94236.19;;;6.35;59.61
9462;BME280;4769;42.660;23.262;2023-04-28T01:15:15;94239.88;;;6.28;59.75
9462;BME280;4769;42.660;23.262;2023-04-28T01:17:42;94246.63;;;6.42;60.16
9462;BME280;4769;42.660;23.262;2023-04-28T01:20:09;94227.75;;;6.58;59.25
9462;BME280;4769;42.660;23.262;2023-04-28T01:22:40;94242.56;;;6.70;59.06
9462;BME280;4769;42.660;23.262;2023-04-28T01:25:13;94237.13;;;6.72;58.30
9462;BME280;4769;42.660;23.262;2023-04-28T01:27:39;94239.13;;;6.76;57.85
9462;BME280;4769;42.660;23.262;2023-04-28T01:30:06;94236.97;;;6.67;58.37
9462;BME280;4769;42.660;23.262;2023-04-28T01:32:32;94244.50;;;6.57;58.18
9462;BME280;4769;42.660;23.262;2023-04-28T01:34:58;94237.78;;;6.67;58.27
9462;BME280;4769;42.660;23.262;2023-04-28T01:37:23;94234.13;;;6.68;58.46
9462;BME280;4769;42.660;23.262;2023-04-28T01:39:49;94241.59;;;6.71;57.85
9462;BME280;4769;42.660;23.262;2023-04-28T01:42:20;94241.31;;;6.55;58.30
9462;BME280;4769;42.660;23.262;2023-04-28T01:44:48;94232.56;;;6.36;58.29
9462;BME280;4769;42.660;23.262;2023-04-28T01:47:14;94240.38;;;6.43;59.05
9462;BME280;4769;42.660;23.262;2023-04-28T01:49:43;94234.59;;;6.59;58.79
9462;BME280;4769;42.660;23.262;2023-04-28T01:52:09;94242.41;;;6.65;58.67
9462;BME280;4769;42.660;23.262;2023-04-28T01:54:35;94242.66;;;6.64;58.30
9462;BME280;4769;42.660;23.262;2023-04-28T01:57:01;94226.75;;;6.59;58.83
9462;BME280;4769;42.660;23.262;2023-04-28T01:59:29;94232.75;;;6.66;59.10
9462;BME280;4769;42.660;23.262;2023-04-28T02:01:55;94229.06;;;6.73;58.88
9462;BME280;4769;42.660;23.262;2023-04-28T02:04:20;94247.16;;;6.81;58.49
9462;BME280;4769;42.660;23.262;2023-04-28T02:06:46;94247.78;;;6.52;58.78
9462;BME280;4769;42.660;23.262;2023-04-28T02:09:12;94247.41;;;6.11;60.44
9462;BME280;4769;42.660;23.262;2023-04-28T02:11:37;94250.28;;;6.03;60.52
9462;BME280;4769;42.660;23.262;2023-04-28T02:14:03;94251.97;;;6.22;60.33
9462;BME280;4769;42.660;23.262;2023-04-28T02:16:32;94247.78;;;6.15;60.62
9462;BME280;4769;42.660;23.262;2023-04-28T02:18:57;94246.97;;;6.14;60.84
9462;BME280;4769;42.660;23.262;2023-04-28T02:21:23;94254.34;;;6.30;60.18
9462;BME280;4769;42.660;23.262;2023-04-28T02:23:49;94248.78;;;6.20;60.62
9462;BME280;4769;42.660;23.262;2023-04-28T02:26:15;94259.63;;;6.24;60.35
9462;BME280;4769;42.660;23.262;2023-04-28T02:28:40;94250.34;;;6.28;60.86
9462;BME280;4769;42.660;23.262;2023-04-28T02:31:07;94266.34;;;6.44;60.29
9462;BME280;4769;42.660;23.262;2023-04-28T02:33:36;94267.00;;;6.33;60.05
9462;BME280;4769;42.660;23.262;2023-04-28T02:36:03;94266.28;;;6.20;60.32
9462;BME280;4769;42.660;23.262;2023-04-28T02:38:29;94270.38;;;6.09;61.53
9462;BME280;4769;42.660;23.262;2023-04-28T02:40:58;94270.09;;;6.24;60.48
9462;BME280;4769;42.660;23.262;2023-04-28T02:43:24;94272.13;;;6.22;60.74
9462;BME280;4769;42.660;23.262;2023-04-28T02:45:50;94262.66;;;6.21;60.30
9462;BME280;4769;42.660;23.262;2023-04-28T02:48:15;94273.75;;;6.23;60.49
9462;BME280;4769;42.660;23.262;2023-04-28T02:50:44;94279.56;;;6.25;60.34
9462;BME280;4769;42.660;23.262;2023-04-28T02:53:09;94268.34;;;6.11;61.27
9462;BME280;4769;42.660;23.262;2023-04-28T02:55:35;94280.03;;;6.15;60.42
9462;BME280;4769;42.660;23.262;2023-04-28T02:58:01;94273.63;;;6.05;60.53
9462;BME280;4769;42.660;23.262;2023-04-28T03:00:26;94289.31;;;6.11;60.55
9462;BME280;4769;42.660;23.262;2023-04-28T03:02:52;94281.69;;;5.97;60.70
9462;BME280;4769;42.660;23.262;2023-04-28T03:05:18;94293.72;;;6.11;60.71
9462;BME280;4769;42.660;23.262;2023-04-28T03:07:46;94288.53;;;5.98;60.61
9462;BME280;4769;42.660;23.262;2023-04-28T03:10:12;94283.78;;;5.82;61.21
9462;BME280;4769;42.660;23.262;2023-04-28T03:12:37;94285.72;;;5.99;60.96
9462;BME280;4769;42.660;23.262;2023-04-28T03:15:04;94290.94;;;6.06;59.97
9462;BME280;4769;42.660;23.262;2023-04-28T03:17:29;94292.53;;;6.07;60.05
9462;BME280;4769;42.660;23.262;2023-04-28T03:19:56;94292.25;;;5.71;61.10
9462;BME280;4769;42.660;23.262;2023-04-28T03:22:21;94298.81;;;5.93;60.07
9462;BME280;4769;42.660;23.262;2023-04-28T03:24:50;94307.72;;;5.85;60.89
9462;BME280;4769;42.660;23.262;2023-04-28T03:27:16;94305.34;;;5.71;61.41
9462;BME280;4769;42.660;23.262;2023-04-28T03:29:41;94313.59;;;5.81;60.79
9462;BME280;4769;42.660;23.262;2023-04-28T03:32:07;94318.19;;;5.85;60.72
9462;BME280;4769;42.660;23.262;2023-04-28T03:34:33;94318.41;;;5.71;60.84
9462;BME280;4769;42.660;23.262;2023-04-28T03:36:59;94329.06;;;5.76;60.58
9462;BME280;4769;42.660;23.262;2023-04-28T03:39:25;94327.66;;;5.80;61.05
9462;BME280;4769;42.660;23.262;2023-04-28T03:41:53;94322.44;;;5.73;60.39
9462;BME280;4769;42.660;23.262;2023-04-28T03:44:19;94328.44;;;5.74;60.96
9462;BME280;4769;42.660;23.262;2023-04-28T03:46:44;94324.22;;;5.79;59.74
9462;BME280;4769;42.660;23.262;2023-04-28T03:49:10;94333.50;;;5.82;59.86
9462;BME280;4769;42.660;23.262;2023-04-28T03:51:36;94334.91;;;5.84;59.59
9462;BME280;4769;42.660;23.262;2023-04-28T03:54:01;94340.75;;;5.73;60.08
9462;BME280;4769;42.660;23.262;2023-04-28T03:56:28;94339.72;;;5.87;59.40
9462;BME280;4769;42.660;23.262;2023-04-28T03:58:56;94343.53;;;5.78;59.47
9462;BME280;4769;42.660;23.262;2023-04-28T04:01:22;94344.31;;;5.98;58.62
9462;BME280;4769;42.660;23.262;2023-04-28T04:03:47;94351.97;;;6.00;58.68
9462;BME280;4769;42.660;23.262;2023-04-28T04:06:13;94352.56;;;5.89;59.18
9462;BME280;4769;42.660;23.262;2023-04-28T04:08:39;94356.00;;;5.89;59.74
9462;BME280;4769;42.660;23.262;2023-04-28T04:11:05;94358.13;;;6.18;58.59
9462;BME280;4769;42.660;23.262;2023-04-28T04:13:30;94358.78;;;6.01;58.39
9462;BME280;4769;42.660;23.262;2023-04-28T04:15:59;94354.34;;;6.08;58.39
9462;BME280;4769;42.660;23.262;2023-04-28T04:18:25;94359.16;;;6.11;57.84
9462;BME280;4769;42.660;23.262;2023-04-28T04:20:50;94366.38;;;6.22;57.74
9462;BME280;4769;42.660;23.262;2023-04-28T04:23:16;94360.34;;;6.15;58.14
9462;BME280;4769;42.660;23.262;2023-04-28T04:25:42;94369.53;;;6.37;58.23
9462;BME280;4769;42.660;23.262;2023-04-28T04:28:07;94382.81;;;6.42;57.92
9462;BME280;4769;42.660;23.262;2023-04-28T04:30:33;94368.31;;;6.39;58.02
9462;BME280;4769;42.660;23.262;2023-04-28T04:33:01;94373.13;;;6.42;58.22
9462;BME280;4769;42.660;23.262;2023-04-28T04:35:27;94367.22;;;6.60;57.52
9462;BME280;4769;42.660;23.262;2023-04-28T04:37:53;94375.03;;;6.66;59.06
9462;BME280;4769;42.660;23.262;2023-04-28T04:40:18;94370.31;;;6.81;57.71
9462;BME280;4769;42.660;23.262;2023-04-28T04:42:44;94367.03;;;6.86;57.86
9462;BME280;4769;42.660;23.262;2023-04-28T04:45:10;94385.81;;;6.83;56.87
9462;BME280;4769;42.660;23.262;2023-04-28T04:47:35;94370.56;;;6.73;58.15
9462;BME280;4769;42.660;23.262;2023-04-28T04:50:05;94385.88;;;7.01;57.66
9462;BME280;4769;42.660;23.262;2023-04-28T04:52:31;94386.25;;;7.11;57.34
9462;BME280;4769;42.660;23.262;2023-04-28T04:54:58;94390.47;;;7.12;56.33
9462;BME280;4769;42.660;23.262;2023-04-28T04:57:24;94397.03;;;7.27;57.03
9462;BME280;4769;42.660;23.262;2023-04-28T04:59:50;94396.13;;;7.09;57.03
9462;BME280;4769;42.660;23.262;2023-04-28T05:02:15;94409.06;;;7.04;57.32
9462;BME280;4769;42.660;23.262;2023-04-28T05:04:41;94405.19;;;7.13;57.17
9462;BME280;4769;42.660;23.262;2023-04-28T05:07:09;94412.31;;;7.06;57.07
9462;BME280;4769;42.660;23.262;2023-04-28T05:09:35;94410.59;;;7.18;57.39
9462;BME280;4769;42.660;23.262;2023-04-28T05:12:01;94403.78;;;7.41;56.18
9462;BME280;4769;42.660;23.262;2023-04-28T05:14:27;94404.72;;;7.22;57.05
9462;BME280;4769;42.660;23.262;2023-04-28T05:16:52;94401.47;;;7.51;56.91
9462;BME280;4769;42.660;23.262;2023-04-28T05:19:18;94401.00;;;7.79;56.49
9462;BME280;4769;42.660;23.262;2023-04-28T05:21:44;94403.31;;;7.93;55.80
9462;BME280;4769;42.660;23.262;2023-04-28T05:24:12;94408.47;;;7.82;56.39
9462;BME280;4769;42.660;23.262;2023-04-28T05:26:38;94402.41;;;7.81;55.75
9462;BME280;4769;42.660;23.262;2023-04-28T05:29:03;94414.03;;;7.67;56.37
9462;BME280;4769;42.660;23.262;2023-04-28T05:31:29;94408.09;;;7.78;55.44
9462;BME280;4769;42.660;23.262;2023-04-28T05:33:55;94412.59;;;7.47;56.03
9462;BME280;4769;42.660;23.262;2023-04-28T05:36:20;94408.97;;;7.48;56.73
9462;BME280;4769;42.660;23.262;2023-04-28T05:38:46;94397.88;;;7.70;56.22
9462;BME280;4769;42.660;23.262;2023-04-28T05:41:14;94397.66;;;7.72;54.76
9462;BME280;4769;42.660;23.262;2023-04-28T05:43:40;94401.84;;;7.79;56.42
9462;BME280;4769;42.660;23.262;2023-04-28T05:46:06;94407.03;;;7.86;54.40
9462;BME280;4769;42.660;23.262;2023-04-28T05:48:31;94401.91;;;7.91;53.99
9462;BME280;4769;42.660;23.262;2023-04-28T05:50:57;94409.59;;;7.68;54.62
9462;BME280;4769;42.660;23.262;2023-04-28T05:53:23;94402.50;;;7.93;54.36
9462;BME280;4769;42.660;23.262;2023-04-28T05:55:48;94399.09;;;8.10;53.18
9462;BME280;4769;42.660;23.262;2023-04-28T05:58:17;94406.31;;;8.15;52.39
9462;BME280;4769;42.660;23.262;2023-04-28T06:00:42;94409.06;;;8.02;52.40
9462;BME280;4769;42.660;23.262;2023-04-28T06:03:08;94409.38;;;8.12;52.36
9462;BME280;4769;42.660;23.262;2023-04-28T06:05:34;94405.25;;;8.22;52.13
9462;BME280;4769;42.660;23.262;2023-04-28T06:07:59;94399.50;;;8.32;51.84
9462;BME280;4769;42.660;23.262;2023-04-28T06:10:25;94405.16;;;8.65;51.68
9462;BME280;4769;42.660;23.262;2023-04-28T06:12:51;94405.28;;;8.88;50.43
9462;BME280;4769;42.660;23.262;2023-04-28T06:15:20;94409.25;;;8.79;49.08
9462;BME280;4769;42.660;23.262;2023-04-28T06:17:46;94404.84;;;8.73;49.95
9462;BME280;4769;42.660;23.262;2023-04-28T06:20:12;94396.41;;;8.71;49.51
9462;BME280;4769;42.660;23.262;2023-04-28T06:22:38;94409.75;;;8.69;48.98
9462;BME280;4769;42.660;23.262;2023-04-28T06:25:05;94397.13;;;8.78;48.80
9462;BME280;4769;42.660;23.262;2023-04-28T06:27:33;94403.16;;;8.78;50.00
9462;BME280;4769;42.660;23.262;2023-04-28T06:29:58;94400.81;;;8.88;50.86
9462;BME280;4769;42.660;23.262;2023-04-28T06:32:27;94405.59;;;9.09;49.57
9462;BME280;4769;42.660;23.262;2023-04-28T06:34:53;94409.66;;;8.94;49.86
9462;BME280;4769;42.660;23.262;2023-04-28T06:37:19;94405.06;;;9.30;49.83
9462;BME280;4769;42.660;23.262;2023-04-28T06:39:45;94397.53;;;9.34;49.59
9462;BME280;4769;42.660;23.262;2023-04-28T06:42:11;94399.88;;;9.76;47.72
9462;BME280;4769;42.660;23.262;2023-04-28T06:44:36;94385.16;;;10.10;47.69
9462;BME280;4769;42.660;23.262;2023-04-28T06:47:02;94391.66;;;9.96;47.17
9462;BME280;4769;42.660;23.262;2023-04-28T06:49:31;94387.44;;;10.18;46.87
9462;BME280;4769;42.660;23.262;2023-04-28T06:51:57;94391.91;;;10.17;45.99
9462;BME280;4769;42.660;23.262;2023-04-28T06:54:22;94393.47;;;10.41;45.91
9462;BME280;4769;42.660;23.262;2023-04-28T06:56:49;94389.34;;;10.34;47.06
9462;BME280;4769;42.660;23.262;2023-04-28T06:59:17;94389.13;;;10.24;46.70
9462;BME280;4769;42.660;23.262;2023-04-28T07:01:43;94389.91;;;10.36;46.09
9462;BME280;4769;42.660;23.262;2023-04-28T07:04:09;94394.16;;;10.37;46.61
9462;BME280;4769;42.660;23.262;2023-04-28T07:06:38;94396.06;;;10.53;46.68
9462;BME280;4769;42.660;23.262;2023-04-28T07:09:04;94392.25;;;10.72;46.48
9462;BME280;4769;42.660;23.262;2023-04-28T07:11:30;94387.78;;;11.00;43.96
9462;BME280;4769;42.660;23.262;2023-04-28T07:13:56;94392.38;;;10.93;42.83
9462;BME280;4769;42.660;23.262;2023-04-28T07:16:22;94381.69;;;11.00;41.97
9462;BME280;4769;42.660;23.262;2023-04-28T07:18:48;94391.25;;;10.89;40.84
9462;BME280;4769;42.660;23.262;2023-04-28T07:21:13;94383.97;;;10.80;41.76
9462;BME280;4769;42.660;23.262;2023-04-28T07:23:42;94379.25;;;10.82;40.51
9462;BME280;4769;42.660;23.262;2023-04-28T07:26:08;94381.69;;;11.00;41.49
9462;BME280;4769;42.660;23.262;2023-04-28T07:28:33;94383.56;;;10.99;42.46
9462;BME280;4769;42.660;23.262;2023-04-28T07:30:59;94382.47;;;11.12;41.52
9462;BME280;4769;42.660;23.262;2023-04-28T07:33:25;94381.13;;;11.26;40.96
9462;BME280;4769;42.660;23.262;2023-04-28T07:35:51;94371.94;;;11.45;40.79
9462;BME280;4769;42.660;23.262;2023-04-28T07:38:17;94372.78;;;11.78;40.42
9462;BME280;4769;42.660;23.262;2023-04-28T07:40:46;94373.34;;;11.80;40.57
9462;BME280;4769;42.660;23.262;2023-04-28T07:43:12;94375.00;;;12.03;40.21
9462;BME280;4769;42.660;23.262;2023-04-28T07:45:38;94376.38;;;11.89;38.94
9462;BME280;4769;42.660;23.262;2023-04-28T07:48:04;94370.34;;;12.10;39.62
9462;BME280;4769;42.660;23.262;2023-04-28T07:50:30;94374.38;;;12.34;41.97
9462;BME280;4769;42.660;23.262;2023-04-28T07:52:57;94369.81;;;12.46;38.49
9462;BME280;4769;42.660;23.262;2023-04-28T07:55:22;94384.41;;;12.32;37.47
9462;BME280;4769;42.660;23.262;2023-04-28T07:57:51;94368.97;;;12.24;38.04
9462;BME280;4769;42.660;23.262;2023-04-28T08:00:17;94372.69;;;12.66;37.90
9462;BME280;4769;42.660;23.262;2023-04-28T08:02:43;94367.50;;;12.76;37.80
9462;BME280;4769;42.660;23.262;2023-04-28T08:05:09;94367.63;;;12.86;36.44
9462;BME280;4769;42.660;23.262;2023-04-28T08:07:35;94372.25;;;12.74;36.41
9462;BME280;4769;42.660;23.262;2023-04-28T08:10:01;94373.28;;;12.94;36.84
9462;BME280;4769;42.660;23.262;2023-04-28T08:12:27;94368.00;;;13.16;36.50
9462;BME280;4769;42.660;23.262;2023-04-28T08:14:55;94364.81;;;13.72;36.26
9462;BME280;4769;42.660;23.262;2023-04-28T08:17:21;94356.22;;;13.96;35.02
9462;BME280;4769;42.660;23.262;2023-04-28T08:19:47;94356.81;;;14.03;35.47
9462;BME280;4769;42.660;23.262;2023-04-28T08:22:13;94363.47;;;14.11;34.34
9462;BME280;4769;42.660;23.262;2023-04-28T08:24:39;94365.31;;;14.47;33.84
9462;BME280;4769;42.660;23.262;2023-04-28T08:27:04;94369.00;;;14.41;33.82
9462;BME280;4769;42.660;23.262;2023-04-28T08:29:31;94364.34;;;14.68;33.18
9462;BME280;4769;42.660;23.262;2023-04-28T08:31:59;94352.16;;;14.72;33.09
9462;BME280;4769;42.660;23.262;2023-04-28T08:34:25;94359.41;;;14.87;33.50
9462;BME280;4769;42.660;23.262;2023-04-28T08:36:52;94350.41;;;14.41;33.30
9462;BME280;4769;42.660;23.262;2023-04-28T08:39:18;94360.94;;;14.21;34.47
9462;BME280;4769;42.660;23.262;2023-04-28T08:41:44;94355.28;;;14.13;33.53
9462;BME280;4769;42.660;23.262;2023-04-28T08:44:10;94363.97;;;14.08;34.00
9462;BME280;4769;42.660;23.262;2023-04-28T08:46:39;94360.31;;;14.56;33.87
9462;BME280;4769;42.660;23.262;2023-04-28T08:49:13;94341.59;;;14.87;32.79
9462;BME280;4769;42.660;23.262;2023-04-28T08:51:44;94346.75;;;15.24;32.94
9462;BME280;4769;42.660;23.262;2023-04-28T08:54:13;94355.19;;;14.96;32.21
9462;BME280;4769;42.660;23.262;2023-04-28T08:56:40;94349.72;;;15.37;32.54
9462;BME280;4769;42.660;23.262;2023-04-28T08:59:06;94342.81;;;15.36;31.70
9462;BME280;4769;42.660;23.262;2023-04-28T09:01:32;94334.78;;;15.11;32.34
9462;BME280;4769;42.660;23.262;2023-04-28T09:04:00;94344.88;;;15.14;32.58
9462;BME280;4769;42.660;23.262;2023-04-28T09:06:31;94338.84;;;14.62;33.13
9462;BME280;4769;42.660;23.262;2023-04-28T09:09:17;94337.28;;;14.61;34.13
9462;BME280;4769;42.660;23.262;2023-04-28T09:11:50;94337.06;;;14.73;33.40
9462;BME280;4769;42.660;23.262;2023-04-28T09:14:16;94333.78;;;15.37;31.72
9462;BME280;4769;42.660;23.262;2023-04-28T09:16:42;94328.94;;;15.19;31.77
9462;BME280;4769;42.660;23.262;2023-04-28T09:19:08;94329.03;;;14.58;32.50
9462;BME280;4769;42.660;23.262;2023-04-28T09:21:49;94321.28;;;15.33;32.29
9462;BME280;4769;42.660;23.262;2023-04-28T09:24:29;94314.09;;;16.03;31.58
9462;BME280;4769;42.660;23.262;2023-04-28T09:26:55;94316.00;;;15.73;31.36
9462;BME280;4769;42.660;23.262;2023-04-28T09:29:22;94317.06;;;15.57;31.68
9462;BME280;4769;42.660;23.262;2023-04-28T09:31:51;94313.31;;;15.78;31.21
9462;BME280;4769;42.660;23.262;2023-04-28T09:34:17;94304.28;;;15.94;31.03
9462;BME280;4769;42.660;23.262;2023-04-28T09:36:46;94310.59;;;15.18;31.80
9462;BME280;4769;42.660;23.262;2023-04-28T09:39:11;94308.50;;;15.15;31.57
9462;BME280;4769;42.660;23.262;2023-04-28T09:41:38;94317.81;;;15.22;31.75
9462;BME280;4769;42.660;23.262;2023-04-28T09:44:14;94299.72;;;15.29;31.39
9462;BME280;4769;42.660;23.262;2023-04-28T09:46:41;94287.50;;;15.28;31.93
9462;BME280;4769;42.660;23.262;2023-04-28T09:49:11;94295.25;;;15.40;31.28
9462;BME280;4769;42.660;23.262;2023-04-28T09:51:38;94291.00;;;15.64;31.29
9462;BME280;4769;42.660;23.262;2023-04-28T09:54:08;94286.44;;;15.99;31.61
9462;BME280;4769;42.660;23.262;2023-04-28T09:56:35;94284.25;;;16.31;31.16
9462;BME280;4769;42.660;23.262;2023-04-28T09:59:01;94289.41;;;16.81;30.37
9462;BME280;4769;42.660;23.262;2023-04-28T10:01:31;94281.38;;;16.18;29.39
9462;BME280;4769;42.660;23.262;2023-04-28T10:04:02;94264.28;;;16.49;29.93
9462;BME280;4769;42.660;23.262;2023-04-28T10:06:29;94283.03;;;15.69;30.99
9462;BME280;4769;42.660;23.262;2023-04-28T10:08:55;94274.19;;;16.18;34.53
9462;BME280;4769;42.660;23.262;2023-04-28T10:11:23;94262.44;;;16.93;35.45
9462;BME280;4769;42.660;23.262;2023-04-28T10:13:50;94265.19;;;16.78;29.62
9462;BME280;4769;42.660;23.262;2023-04-28T10:16:18;94261.91;;;16.42;29.76
9462;BME280;4769;42.660;23.262;2023-04-28T10:18:44;94273.41;;;16.86;28.69
9462;BME280;4769;42.660;23.262;2023-04-28T10:21:11;94267.22;;;16.22;28.91
9462;BME280;4769;42.660;23.262;2023-04-28T10:23:58;94271.00;;;16.11;27.84
9462;BME280;4769;42.660;23.262;2023-04-28T10:27:03;94266.13;;;16.48;28.58
9462;BME280;4769;42.660;23.262;2023-04-28T10:29:48;94251.06;;;17.21;29.07
9462;BME280;4769;42.660;23.262;2023-04-28T10:32:18;94247.88;;;18.14;27.61
9462;BME280;4769;42.660;23.262;2023-04-28T10:34:44;94245.22;;;18.14;27.15
9462;BME280;4769;42.660;23.262;2023-04-28T10:37:10;94242.94;;;18.26;26.28
9462;BME280;4769;42.660;23.262;2023-04-28T10:39:35;94247.19;;;18.04;26.94
9462;BME280;4769;42.660;23.262;2023-04-28T10:42:04;94233.00;;;18.55;26.32
9462;BME280;4769;42.660;23.262;2023-04-28T10:44:42;94250.81;;;17.61;25.93
9462;BME280;4769;42.660;23.262;2023-04-28T10:47:08;94235.47;;;17.43;26.15
9462;BME280;4769;42.660;23.262;2023-04-28T10:50:07;94221.16;;;17.62;26.14
9462;BME280;4769;42.660;23.262;2023-04-28T10:52:49;94223.19;;;17.08;27.42
9462;BME280;4769;42.660;23.262;2023-04-28T10:55:32;94227.94;;;17.11;25.84
9462;BME280;4769;42.660;23.262;2023-04-28T11:01:23;94221.81;;;17.78;25.90
9462;BME280;4769;42.660;23.262;2023-04-28T11:03:50;94216.25;;;18.26;26.37
9462;BME280;4769;42.660;23.262;2023-04-28T11:06:20;94205.38;;;17.71;26.43
9462;BME280;4769;42.660;23.262;2023-04-28T11:08:46;94210.31;;;18.06;25.07
9462;BME280;4769;42.660;23.262;2023-04-28T11:11:18;94211.03;;;18.16;24.59
9462;BME280;4769;42.660;23.262;2023-04-28T11:13:44;94210.03;;;17.55;24.49
9462;BME280;4769;42.660;23.262;2023-04-28T11:16:13;94215.25;;;17.32;25.37
9462;BME280;4769;42.660;23.262;2023-04-28T11:18:49;94203.63;;;17.85;25.45
9462;BME280;4769;42.660;23.262;2023-04-28T11:21:15;94192.44;;;18.30;25.32
9462;BME280;4769;42.660;23.262;2023-04-28T11:23:41;94202.66;;;18.88;24.44
9462;BME280;4769;42.660;23.262;2023-04-28T11:26:07;94197.34;;;19.20;24.28
9462;BME280;4769;42.660;23.262;2023-04-28T11:28:37;94202.50;;;18.98;25.39
9462;BME280;4769;42.660;23.262;2023-04-28T11:31:15;94194.69;;;18.83;26.35
9462;BME280;4769;42.660;23.262;2023-04-28T11:33:42;94194.28;;;18.76;24.78
9462;BME280;4769;42.660;23.262;2023-04-28T11:36:21;94190.69;;;18.44;24.61
9462;BME280;4769;42.660;23.262;2023-04-28T11:38:47;94193.03;;;18.69;24.26
9462;BME280;4769;42.660;23.262;2023-04-28T11:41:12;94187.94;;;18.91;24.17
9462;BME280;4769;42.660;23.262;2023-04-28T11:43:38;94164.41;;;19.89;23.34
9462;BME280;4769;42.660;23.262;2023-04-28T11:46:07;94175.09;;;19.43;22.48
9462;BME280;4769;42.660;23.262;2023-04-28T11:48:36;94174.13;;;19.02;22.86
9462;BME280;4769;42.660;23.262;2023-04-28T11:51:05;94174.06;;;19.07;22.50
9462;BME280;4769;42.660;23.262;2023-04-28T11:53:40;94170.38;;;19.54;22.08
9462;BME280;4769;42.660;23.262;2023-04-28T11:56:08;94164.25;;;19.80;22.98
9462;BME280;4769;42.660;23.262;2023-04-28T11:58:34;94167.75;;;19.94;22.82
9462;BME280;4769;42.660;23.262;2023-04-28T12:01:06;94166.72;;;20.85;21.77
9462;BME280;4769;42.660;23.262;2023-04-28T12:03:46;94165.44;;;22.14;20.80
9462;BME280;4769;42.660;23.262;2023-04-28T12:06:16;94163.03;;;22.52;20.08
9462;BME280;4769;42.660;23.262;2023-04-28T12:08:42;94149.06;;;23.31;20.33
9462;BME280;4769;42.660;23.262;2023-04-28T12:11:08;94149.03;;;22.24;20.47
9462;BME280;4769;42.660;23.262;2023-04-28T12:13:34;94153.94;;;22.95;20.49
9462;BME280;4769;42.660;23.262;2023-04-28T12:16:00;94137.25;;;23.87;19.47
9462;BME280;4769;42.660;23.262;2023-04-28T12:18:26;94142.78;;;23.91;19.08
9462;BME280;4769;42.660;23.262;2023-04-28T12:20:55;94134.16;;;23.00;19.35
9462;BME280;4769;42.660;23.262;2023-04-28T12:23:30;94132.19;;;24.32;19.67
9462;BME280;4769;42.660;23.262;2023-04-28T12:25:56;94127.16;;;24.22;18.60
9462;BME280;4769;42.660;23.262;2023-04-28T12:28:22;94131.81;;;24.42;17.52
9462;BME280;4769;42.660;23.262;2023-04-28T12:30:48;94120.28;;;24.33;18.07
9462;BME280;4769;42.660;23.262;2023-04-28T12:33:24;94130.66;;;23.16;19.00
9462;BME280;4769;42.660;23.262;2023-04-28T12:35:49;94127.06;;;23.38;18.92
9462;BME280;4769;42.660;23.262;2023-04-28T12:38:18;94126.25;;;23.12;19.56
9462;BME280;4769;42.660;23.262;2023-04-28T12:40:44;94124.34;;;24.10;19.36
9462;BME280;4769;42.660;23.262;2023-04-28T12:43:09;94115.31;;;24.14;19.70
9462;BME280;4769;42.660;23.262;2023-04-28T12:45:35;94104.94;;;24.83;18.42
9462;BME280;4769;42.660;23.262;2023-04-28T12:48:01;94112.31;;;23.61;19.63
9462;BME280;4769;42.660;23.262;2023-04-28T12:50:26;94120.09;;;22.30;20.57
9462;BME280;4769;42.660;23.262;2023-04-28T12:52:52;94113.75;;;22.73;20.65
9462;BME280;4769;42.660;23.262;2023-04-28T12:55:21;94104.28;;;23.35;19.55
9462;BME280;4769;42.660;23.262;2023-04-28T12:57:46;94095.25;;;22.89;19.64
9462;BME280;4769;42.660;23.262;2023-04-28T13:00:13;94108.72;;;21.55;20.63
9462;BME280;4769;42.660;23.262;2023-04-28T13:02:39;94096.69;;;21.00;22.31
9462;BME280;4769;42.660;23.262;2023-04-28T13:05:05;94085.91;;;22.05;21.23
9462;BME280;4769;42.660;23.262;2023-04-28T13:07:32;94092.69;;;23.18;20.92
9462;BME280;4769;42.660;23.262;2023-04-28T13:09:58;94079.19;;;23.60;20.12
9462;BME280;4769;42.660;23.262;2023-04-28T13:12:28;94080.72;;;23.78;19.37
9462;BME280;4769;42.660;23.262;2023-04-28T13:14:54;94085.28;;;22.81;20.62
9462;BME280;4769;42.660;23.262;2023-04-28T13:17:20;94094.00;;;21.44;21.35
9462;BME280;4769;42.660;23.262;2023-04-28T13:19:46;94099.13;;;22.32;20.63
9462;BME280;4769;42.660;23.262;2023-04-28T13:22:14;94071.84;;;23.23;18.98